Time;durP1;ratioP1;P1;durP2;ratioP2;P2;SDS_P1;SDS_P2;PMS_P1;PMS_P2;Temp;Humidity;BMP_temperature;BMP_pressure;BME280_temperature;BME280_humidity;BME280_pressure;Samples;Min_cycle;Max_cycle;Signal;HPM_P1;HPM_P2
2021/01/05 00:00:44;;;;;;;17.97;12.17;;;4.00;85.40;;;;;;4902125;28;20184;-73
2021/01/05 00:03:06;;;;;;;20.87;12.77;;;4.00;84.80;;;;;;4907824;28;20180;-73
2021/01/05 00:05:29;;;;;;;19.77;12.30;;;4.00;85.90;;;;;;4902943;28;20196;-72
2021/01/05 00:07:52;;;;;;;20.10;12.73;;;4.00;87.20;;;;;;4909606;28;20188;-72
2021/01/05 00:10:14;;;;;;;19.57;11.63;;;4.00;87.00;;;;;;4907689;28;20184;-71
2021/01/05 00:12:36;;;;;;;17.80;10.80;;;4.00;87.50;;;;;;4905355;28;20616;-72
2021/01/05 00:14:58;;;;;;;16.77;11.13;;;4.00;87.40;;;;;;4907024;28;20234;-73
2021/01/05 00:17:22;;;;;;;16.90;11.33;;;4.00;84.70;;;;;;4907853;28;20242;-76
2021/01/05 00:19:45;;;;;;;19.67;11.70;;;4.00;85.20;;;;;;4902462;28;20246;-74
2021/01/05 00:22:08;;;;;;;17.77;10.87;;;4.00;85.50;;;;;;4908652;28;20184;-72
2021/01/05 00:24:30;;;;;;;17.27;11.17;;;4.00;86.50;;;;;;4905658;28;20294;-72
2021/01/05 00:26:53;;;;;;;15.97;11.00;;;3.80;87.70;;;;;;4905740;28;20227;-72
2021/01/05 00:29:15;;;;;;;17.50;10.27;;;3.90;87.90;;;;;;4907559;28;20712;-73
2021/01/05 00:31:38;;;;;;;16.07;9.90;;;3.90;88.30;;;;;;4909090;28;20200;-72
2021/01/05 00:34:00;;;;;;;15.57;10.17;;;3.90;88.80;;;;;;4890751;28;20592;-72
2021/01/05 00:36:22;;;;;;;16.10;10.10;;;3.90;90.50;;;;;;4905192;28;20246;-77
2021/01/05 00:38:45;;;;;;;15.97;10.63;;;3.80;91.00;;;;;;4902823;28;20241;-73
2021/01/05 00:41:07;;;;;;;16.10;10.77;;;3.80;91.90;;;;;;4932487;28;20244;-72
2021/01/05 00:43:29;;;;;;;17.17;11.67;;;3.80;91.90;;;;;;4887684;28;20729;-73
2021/01/05 00:45:51;;;;;;;15.97;10.57;;;3.80;92.30;;;;;;4902937;28;20196;-73
2021/01/05 00:48:13;;;;;;;16.40;11.17;;;3.80;92.30;;;;;;4911224;28;20563;-74
2021/01/05 00:50:36;;;;;;;18.17;11.43;;;3.80;91.80;;;;;;4900743;28;20238;-72
2021/01/05 00:52:58;;;;;;;18.20;11.33;;;3.90;91.80;;;;;;4883705;28;20221;-73
2021/01/05 00:55:21;;;;;;;18.87;11.13;;;3.80;91.50;;;;;;4888509;28;20276;-72
2021/01/05 00:57:45;;;;;;;19.30;11.50;;;3.80;92.60;;;;;;4899667;28;20228;-72
2021/01/05 01:00:10;;;;;;;20.17;11.97;;;3.70;93.30;;;;;;4907021;28;20231;-73
2021/01/05 01:02:32;;;;;;;20.67;12.10;;;3.80;93.60;;;;;;4901569;28;20713;-72
2021/01/05 01:04:54;;;;;;;18.77;11.87;;;3.80;93.40;;;;;;4906133;28;20193;-73
2021/01/05 01:07:16;;;;;;;21.30;11.43;;;3.80;92.80;;;;;;4906979;28;20246;-73
2021/01/05 01:09:40;;;;;;;19.33;10.53;;;3.80;93.00;;;;;;4904211;28;20223;-73
2021/01/05 01:12:06;;;;;;;17.60;10.83;;;3.80;93.20;;;;;;4890048;28;20327;-72
2021/01/05 01:14:34;;;;;;;17.80;11.30;;;3.80;93.50;;;;;;4903949;28;20220;-71
2021/01/05 01:16:57;;;;;;;19.60;12.10;;;3.80;94.10;;;;;;4903867;28;20858;-72
2021/01/05 01:19:19;;;;;;;19.23;11.10;;;3.80;94.40;;;;;;4905495;28;20228;-72
2021/01/05 01:21:45;;;;;;;19.33;12.10;;;3.80;95.20;;;;;;4902847;28;20197;-79
2021/01/05 01:24:09;;;;;;;20.73;13.13;;;3.80;95.50;;;;;;4903486;28;20196;-72
2021/01/05 01:26:31;;;;;;;17.43;12.20;;;3.70;95.50;;;;;;4908258;28;20176;-73
2021/01/05 01:28:54;;;;;;;20.53;12.60;;;3.80;95.40;;;;;;4908525;28;20233;-72
2021/01/05 01:31:16;;;;;;;19.17;11.57;;;3.80;95.00;;;;;;4904589;28;20534;-72
2021/01/05 01:33:39;;;;;;;22.60;12.27;;;3.60;95.20;;;;;;4886095;28;20193;-72
2021/01/05 01:36:02;;;;;;;18.67;11.77;;;3.90;94.90;;;;;;4904476;28;20197;-72
2021/01/05 01:38:25;;;;;;;22.20;12.30;;;3.80;94.90;;;;;;4914956;28;20208;-74
2021/01/05 01:40:53;;;;;;;19.57;11.93;;;3.70;95.20;;;;;;4890935;28;20243;-72
2021/01/05 01:43:23;;;;;;;20.97;12.37;;;4.60;95.60;;;;;;4897851;28;20204;-73
2021/01/05 01:45:48;;;;;;;21.23;12.87;;;3.70;95.70;;;;;;4873054;28;20189;-72
2021/01/05 01:48:17;;;;;;;21.00;12.83;;;3.60;96.80;;;;;;4904024;28;20251;-72
2021/01/05 01:50:44;;;;;;;20.97;12.47;;;3.70;97.10;;;;;;4905104;28;20285;-73
2021/01/05 01:53:31;;;;;;;21.67;12.33;;;3.70;96.90;;;;;;4905390;28;20215;-72
2021/01/05 01:56:20;;;;;;;19.13;12.27;;;3.80;95.90;;;;;;4904660;28;20289;-72
2021/01/05 01:59:00;;;;;;;20.13;12.37;;;3.70;95.50;;;;;;4903289;28;20227;-72
2021/01/05 02:01:33;;;;;;;23.10;13.43;;;3.70;95.90;;;;;;4910124;28;20213;-73
2021/01/05 02:04:01;;;;;;;21.77;13.30;;;3.70;95.30;;;;;;4899536;28;20200;-72
2021/01/05 02:06:39;;;;;;;22.70;12.90;;;3.70;95.60;;;;;;4896959;28;20674;-73
2021/01/05 02:09:39;;;;;;;23.73;12.67;;;3.70;96.10;;;;;;4906388;28;20313;-72
2021/01/05 02:12:10;;;;;;;22.50;12.50;;;3.70;95.80;;;;;;4894299;28;20200;-72
2021/01/05 02:14:59;;;;;;;20.70;12.90;;;3.70;95.90;;;;;;4902180;28;20275;-73
2021/01/05 02:17:55;;;;;;;19.87;11.80;;;3.70;96.30;;;;;;4910639;28;20264;-72
2021/01/05 02:20:23;;;;;;;24.07;13.47;;;3.70;96.50;;;;;;4886143;28;20208;-72
2021/01/05 02:22:55;;;;;;;19.43;11.83;;;3.60;96.80;;;;;;4885933;28;20315;-72
2021/01/05 02:25:22;;;;;;;19.13;11.90;;;3.70;97.10;;;;;;4902895;28;20596;-71
2021/01/05 02:27:57;;;;;;;20.73;12.33;;;3.60;96.70;;;;;;4902628;28;20204;-72
2021/01/05 02:30:23;;;;;;;17.40;11.20;;;3.70;96.70;;;;;;4909241;28;20199;-72
2021/01/05 02:32:54;;;;;;;18.90;11.50;;;3.60;96.10;;;;;;4908253;28;20253;-74
2021/01/05 02:35:43;;;;;;;19.20;11.27;;;3.70;96.90;;;;;;4912897;28;20644;-73
2021/01/05 02:38:39;;;;;;;23.00;13.17;;;3.60;97.40;;;;;;4904169;28;20204;-72
2021/01/05 02:41:37;;;;;;;24.13;13.43;;;3.60;98.40;;;;;;4904862;28;20185;-73
2021/01/05 02:44:36;;;;;;;23.37;14.10;;;3.60;98.30;;;;;;4905590;28;20181;-72
2021/01/05 02:47:32;;;;;;;19.97;12.20;;;3.50;98.60;;;;;;4904364;28;20187;-72
2021/01/05 02:50:25;;;;;;;21.27;12.10;;;3.60;98.90;;;;;;4907172;28;20188;-72
2021/01/05 02:53:34;;;;;;;24.13;12.47;;;3.50;98.90;;;;;;4904116;28;20224;-72
2021/01/05 02:57:02;;;;;;;23.27;12.90;;;3.60;99.10;;;;;;4861285;28;20557;-73
2021/01/05 03:00:15;;;;;;;22.40;12.57;;;3.50;99.80;;;;;;4903663;28;20258;-72
2021/01/05 03:03:38;;;;;;;23.03;12.97;;;3.60;99.90;;;;;;4903913;28;20230;-72
2021/01/05 03:06:27;;;;;;;24.03;13.40;;;3.50;99.90;;;;;;4896313;28;20196;-72
2021/01/05 03:09:34;;;;;;;19.57;11.40;;;3.40;99.90;;;;;;4898308;28;20177;-73
2021/01/05 03:12:26;;;;;;;15.40;9.80;;;3.50;99.90;;;;;;4904972;28;20176;-72
2021/01/05 03:15:21;;;;;;;16.83;10.30;;;3.40;99.90;;;;;;4904698;28;20184;-72
2021/01/05 03:18:07;;;;;;;13.33;9.47;;;3.40;99.90;;;;;;4902505;28;20181;-71
2021/01/05 03:20:56;;;;;;;15.60;9.67;;;3.40;99.90;;;;;;4902460;28;20185;-72
2021/01/05 03:23:50;;;;;;;16.00;9.80;;;3.40;99.90;;;;;;4857892;28;20194;-72
2021/01/05 03:26:36;;;;;;;12.63;8.73;;;3.40;99.90;;;;;;4907004;28;20176;-71
2021/01/05 03:29:18;;;;;;;15.20;9.70;;;3.40;99.90;;;;;;4903872;28;20188;-71
2021/01/05 03:32:04;;;;;;;14.47;9.20;;;3.40;99.90;;;;;;4903443;28;20190;-72
2021/01/05 03:34:44;;;;;;;16.97;10.20;;;3.30;99.90;;;;;;4903631;28;20493;-74
2021/01/05 03:37:26;;;;;;;15.87;9.47;;;3.40;99.90;;;;;;4906149;28;20222;-72
2021/01/05 03:40:09;;;;;;;12.73;8.77;;;3.40;99.90;;;;;;4902276;28;20208;-71
2021/01/05 03:42:50;;;;;;;15.20;10.20;;;3.40;99.90;;;;;;4907329;28;20230;-72
2021/01/05 03:45:32;;;;;;;14.63;9.93;;;3.40;99.90;;;;;;4903952;28;20695;-71
2021/01/05 03:48:13;;;;;;;13.90;9.33;;;3.40;99.90;;;;;;4905376;28;20176;-71
2021/01/05 03:50:53;;;;;;;13.77;9.10;;;3.40;99.90;;;;;;4900280;28;20241;-72
2021/01/05 03:53:35;;;;;;;11.93;7.93;;;3.40;99.90;;;;;;4901847;28;20220;-74
2021/01/05 03:56:15;;;;;;;11.27;7.63;;;3.40;99.90;;;;;;4897234;28;20238;-71
2021/01/05 03:58:56;;;;;;;11.30;7.97;;;3.40;99.90;;;;;;4906044;28;20199;-72
2021/01/05 04:01:37;;;;;;;11.30;8.20;;;3.40;99.90;;;;;;4907094;28;20203;-71
2021/01/05 04:03:59;;;;;;;9.70;7.33;;;3.50;99.90;;;;;;4904424;28;20210;-73
2021/01/05 04:06:21;;;;;;;10.70;7.83;;;3.40;99.90;;;;;;4910405;28;20233;-71
2021/01/05 04:08:44;;;;;;;9.43;6.93;;;3.30;99.90;;;;;;4899452;28;20296;-72
2021/01/05 04:11:06;;;;;;;9.83;7.23;;;3.40;99.90;;;;;;4905096;28;20193;-72
2021/01/05 04:13:28;;;;;;;9.83;6.97;;;3.40;99.90;;;;;;4900851;28;20258;-72
2021/01/05 04:15:50;;;;;;;10.30;6.87;;;3.40;99.90;;;;;;4883297;28;20673;-78
2021/01/05 04:18:12;;;;;;;11.03;7.73;;;3.40;99.90;;;;;;4904497;28;20241;-73
2021/01/05 04:20:35;;;;;;;11.27;7.73;;;3.40;99.90;;;;;;4897224;28;20341;-72
2021/01/05 04:22:58;;;;;;;10.80;7.73;;;3.40;99.90;;;;;;4905645;28;20189;-76
2021/01/05 04:25:22;;;;;;;11.57;7.60;;;3.40;99.90;;;;;;4903271;28;20192;-79
2021/01/05 04:27:44;;;;;;;10.67;7.43;;;3.30;99.90;;;;;;4902284;28;20225;-80
2021/01/05 04:30:16;;;;;;;11.37;7.90;;;3.50;99.90;;;;;;4908887;28;20637;-79
2021/01/05 04:32:38;;;;;;;10.23;7.37;;;3.40;99.90;;;;;;4902814;28;20225;-77
2021/01/05 04:35:00;;;;;;;10.40;6.90;;;3.40;99.90;;;;;;4909399;28;20192;-73
2021/01/05 04:37:22;;;;;;;10.30;6.93;;;3.40;99.90;;;;;;4908610;28;20193;-78
2021/01/05 04:39:45;;;;;;;9.53;7.30;;;3.40;99.90;;;;;;4892429;28;20225;-73
2021/01/05 04:42:17;;;;;;;9.33;6.83;;;3.40;99.90;;;;;;4906066;28;20210;-80
2021/01/05 04:44:48;;;;;;;9.47;7.20;;;3.50;99.90;;;;;;4909793;28;20176;-78
2021/01/05 04:47:23;;;;;;;10.07;6.70;;;3.50;99.90;;;;;;4910456;28;20176;-74
2021/01/05 04:50:11;;;;;;;10.33;6.83;;;3.40;99.90;;;;;;4910858;28;20186;-74
2021/01/05 04:52:41;;;;;;;9.93;7.40;;;3.40;99.90;;;;;;4909236;28;20180;-79
2021/01/05 04:55:07;;;;;;;10.10;7.23;;;3.40;99.90;;;;;;4914348;28;20202;-78
2021/01/05 04:57:34;;;;;;;11.53;7.33;;;3.50;99.90;;;;;;4906179;28;20646;-76
2021/01/05 05:00:03;;;;;;;10.20;6.70;;;3.50;99.90;;;;;;4905545;28;20207;-72
2021/01/05 05:02:47;;;;;;;8.37;6.73;;;3.50;99.90;;;;;;4903358;28;20193;-79
2021/01/05 05:05:29;;;;;;;9.70;6.90;;;3.50;99.90;;;;;;4906575;28;20225;-72
2021/01/05 05:08:03;;;;;;;9.90;7.20;;;3.50;99.90;;;;;;4903314;28;20612;-72
2021/01/05 05:10:31;;;;;;;8.83;6.60;;;3.60;99.90;;;;;;4907542;28;20230;-73
2021/01/05 05:13:02;;;;;;;8.33;6.50;;;3.50;99.90;;;;;;4906909;28;20188;-71
2021/01/05 05:15:44;;;;;;;8.87;6.50;;;3.50;99.90;;;;;;4904652;28;20184;-71
2021/01/05 05:18:17;;;;;;;10.40;7.23;;;3.50;99.90;;;;;;4905846;28;20177;-71
2021/01/05 05:21:12;;;;;;;8.87;7.13;;;3.60;99.90;;;;;;4887746;28;20221;-71
2021/01/05 05:23:53;;;;;;;8.17;6.77;;;3.50;99.90;;;;;;4907989;28;20657;-72
2021/01/05 05:26:21;;;;;;;19.17;9.67;;;3.60;99.90;;;;;;4910019;28;20653;-70
2021/01/05 05:28:50;;;;;;;12.07;7.27;;;3.70;99.90;;;;;;4904410;28;20185;-70
2021/01/05 05:31:16;;;;;;;8.30;6.40;;;3.60;99.90;;;;;;4911109;28;20189;-71
2021/01/05 05:33:40;;;;;;;8.33;6.60;;;3.70;99.90;;;;;;4908064;28;20184;-71
2021/01/05 05:36:16;;;;;;;7.53;5.70;;;3.60;99.90;;;;;;4908521;28;20245;-71
2021/01/05 05:39:11;;;;;;;9.23;6.60;;;3.60;99.90;;;;;;4907711;28;20567;-71
2021/01/05 05:41:43;;;;;;;9.73;7.30;;;3.60;99.90;;;;;;4900717;28;20196;-71
2021/01/05 05:44:31;;;;;;;9.67;7.23;;;3.70;99.90;;;;;;4903907;28;20708;-71
2021/01/05 05:47:01;;;;;;;10.80;7.40;;;3.60;99.90;;;;;;4905273;28;20242;-71
2021/01/05 05:49:40;;;;;;;8.27;6.97;;;3.60;99.90;;;;;;4911855;28;20219;-71
2021/01/05 05:52:06;;;;;;;10.03;7.03;;;3.70;99.90;;;;;;4907859;28;20186;-71
2021/01/05 05:54:28;;;;;;;10.13;6.70;;;3.60;99.90;;;;;;4904974;28;20217;-71
2021/01/05 05:57:12;;;;;;;9.47;6.70;;;4.00;99.90;;;;;;4904449;28;20671;-71
2021/01/05 05:59:39;;;;;;;10.57;7.20;;;3.70;99.90;;;;;;4904738;28;20575;-71
2021/01/05 06:02:01;;;;;;;8.00;6.10;;;3.70;99.90;;;;;;4909320;28;20188;-71
2021/01/05 06:04:23;;;;;;;8.17;6.17;;;3.70;99.90;;;;;;4888609;28;20197;-70
2021/01/05 06:06:46;;;;;;;9.10;6.40;;;3.70;99.90;;;;;;4888458;28;20247;-72
2021/01/05 06:09:08;;;;;;;9.57;6.97;;;3.70;99.90;;;;;;4887302;28;20193;-71
2021/01/05 06:11:33;;;;;;;8.70;6.30;;;3.70;99.90;;;;;;4907259;28;20233;-72
2021/01/05 06:13:55;;;;;;;8.63;6.60;;;3.90;99.90;;;;;;4906347;28;20192;-72
2021/01/05 06:16:18;;;;;;;7.97;6.17;;;3.70;99.90;;;;;;4904979;28;20717;-71
2021/01/05 06:18:40;;;;;;;7.80;6.27;;;3.70;99.90;;;;;;4903372;28;20712;-71
2021/01/05 06:21:02;;;;;;;8.40;6.37;;;3.80;99.90;;;;;;4912297;28;20671;-70
2021/01/05 06:23:25;;;;;;;7.63;5.53;;;3.70;99.90;;;;;;4904300;28;20255;-71
2021/01/05 06:25:47;;;;;;;8.67;6.30;;;3.80;99.90;;;;;;4907642;28;20218;-72
2021/01/05 06:28:09;;;;;;;7.37;5.47;;;3.70;99.90;;;;;;4905844;28;20188;-71
2021/01/05 06:30:32;;;;;;;6.67;4.90;;;3.80;99.90;;;;;;4904278;28;20181;-71
2021/01/05 06:32:55;;;;;;;6.43;4.87;;;3.80;99.90;;;;;;4896530;28;20196;-71
2021/01/05 06:35:20;;;;;;;6.87;4.83;;;3.80;99.90;;;;;;4911066;28;20184;-71
2021/01/05 06:37:42;;;;;;;6.80;4.60;;;3.80;99.90;;;;;;4903565;28;20239;-71
2021/01/05 06:40:06;;;;;;;6.43;5.47;;;3.90;99.90;;;;;;4908931;28;20681;-71
2021/01/05 06:42:28;;;;;;;8.43;6.07;;;3.80;99.90;;;;;;4906324;28;20642;-72
2021/01/05 06:44:50;;;;;;;6.80;5.30;;;3.80;99.90;;;;;;4906972;28;20292;-71
2021/01/05 06:47:13;;;;;;;7.10;5.37;;;3.70;99.90;;;;;;4905320;28;20624;-71
2021/01/05 06:49:36;;;;;;;7.20;5.57;;;3.80;99.90;;;;;;4897036;28;20185;-71
2021/01/05 06:51:58;;;;;;;6.23;4.57;;;3.70;99.90;;;;;;4903783;28;20191;-71
2021/01/05 06:54:21;;;;;;;6.10;5.00;;;3.80;99.90;;;;;;4903992;28;20273;-71
2021/01/05 06:56:50;;;;;;;4.63;4.13;;;3.80;99.90;;;;;;4904033;28;20188;-71
2021/01/05 06:59:12;;;;;;;5.20;3.83;;;3.80;99.90;;;;;;4904324;28;20184;-71
2021/01/05 07:01:34;;;;;;;4.97;3.83;;;3.80;99.90;;;;;;4904637;28;20269;-71
2021/01/05 07:03:57;;;;;;;7.53;4.10;;;3.80;99.90;;;;;;4905400;28;20587;-72
2021/01/05 07:06:22;;;;;;;4.17;3.43;;;3.80;99.90;;;;;;4900987;28;20195;-71
2021/01/05 07:08:44;;;;;;;7.37;4.50;;;3.80;99.90;;;;;;4903403;28;20237;-71
2021/01/05 07:11:06;;;;;;;6.60;4.67;;;3.80;99.90;;;;;;4906694;28;20284;-72
2021/01/05 07:13:29;;;;;;;4.53;3.83;;;3.80;99.90;;;;;;4899860;28;20180;-72
2021/01/05 07:15:51;;;;;;;5.93;4.23;;;3.80;99.90;;;;;;4908979;28;20237;-71
2021/01/05 07:18:13;;;;;;;5.17;3.87;;;3.80;99.90;;;;;;4899116;28;20242;-70
2021/01/05 07:20:35;;;;;;;4.60;3.70;;;3.90;99.90;;;;;;4900040;28;20211;-71
2021/01/05 07:22:58;;;;;;;4.00;3.37;;;3.90;99.90;;;;;;4906446;28;20180;-74
2021/01/05 07:25:20;;;;;;;7.33;5.57;;;3.90;99.90;;;;;;4902483;28;20257;-70
2021/01/05 07:27:42;;;;;;;5.47;3.87;;;3.90;99.90;;;;;;4908640;28;20188;-71
2021/01/05 07:30:06;;;;;;;6.43;3.77;;;3.90;99.90;;;;;;4905482;28;20665;-71
2021/01/05 07:32:28;;;;;;;4.23;3.20;;;3.90;99.90;;;;;;4909558;28;20227;-72
2021/01/05 07:34:50;;;;;;;5.30;3.73;;;3.90;99.90;;;;;;4900788;28;20200;-71
2021/01/05 07:37:17;;;;;;;4.27;3.70;;;3.90;99.90;;;;;;4908855;28;20184;-71
2021/01/05 07:39:40;;;;;;;3.43;3.10;;;3.90;99.90;;;;;;4903945;28;20201;-72
2021/01/05 07:42:15;;;;;;;4.17;3.50;;;3.90;99.60;;;;;;4902569;28;20211;-71
2021/01/05 07:44:38;;;;;;;4.97;3.97;;;1.40;98.10;;;;;;4896719;28;20956;-71
2021/01/05 07:47:00;;;;;;;4.77;3.60;;;3.90;99.30;;;;;;4910563;28;20184;-71
2021/01/05 07:49:23;;;;;;;4.33;3.77;;;3.90;98.50;;;;;;4900429;28;20200;-72
2021/01/05 07:51:48;;;;;;;4.27;3.30;;;3.90;98.50;;;;;;4905480;28;20292;-72
2021/01/05 07:54:10;;;;;;;3.90;3.20;;;3.90;98.70;;;;;;4902982;28;20246;-72
2021/01/05 07:56:33;;;;;;;4.53;3.37;;;3.90;98.30;;;;;;4901175;28;20184;-72
2021/01/05 07:58:55;;;;;;;3.80;3.23;;;4.00;96.20;;;;;;4903260;28;20223;-71
2021/01/05 08:01:17;;;;;;;5.10;3.77;;;3.90;96.30;;;;;;4902338;28;20212;-71
2021/01/05 08:03:39;;;;;;;5.73;3.83;;;4.00;96.40;;;;;;4906379;28;20215;-72
2021/01/05 08:06:04;;;;;;;5.13;3.30;;;4.00;96.90;;;;;;4908886;28;20311;-72
2021/01/05 08:08:26;;;;;;;4.20;3.10;;;4.10;96.50;;;;;;4904779;28;20184;-72
2021/01/05 08:10:49;;;;;;;4.97;3.63;;;4.10;94.70;;;;;;4909121;28;20214;-71
2021/01/05 08:13:12;;;;;;;4.57;3.87;;;4.10;94.50;;;;;;4906737;28;20192;-71
2021/01/05 08:15:35;;;;;;;3.43;3.00;;;4.10;93.10;;;;;;4906697;28;20776;-72
2021/01/05 08:17:58;;;;;;;4.83;3.87;;;4.20;93.00;;;;;;4905539;28;20201;-72
2021/01/05 08:20:22;;;;;;;5.47;3.70;;;4.20;93.20;;;;;;4907765;28;20253;-71
2021/01/05 08:22:46;;;;;;;5.00;3.80;;;4.30;93.80;;;;;;4907321;28;20287;-76
2021/01/05 08:25:09;;;;;;;5.93;4.40;;;4.20;93.90;;;;;;4897313;28;20723;-78
2021/01/05 08:27:31;;;;;;;4.97;4.33;;;4.20;93.80;;;;;;4899096;28;20242;-77
2021/01/05 08:29:54;;;;;;;6.67;4.00;;;4.30;93.90;;;;;;4897193;28;20196;-75
2021/01/05 08:32:16;;;;;;;6.83;5.33;;;4.30;93.50;;;;;;4905386;28;20222;-72
2021/01/05 08:34:38;;;;;;;7.03;4.73;;;4.30;91.90;;;;;;4904697;28;20270;-75
2021/01/05 08:37:00;;;;;;;5.13;4.23;;;4.40;91.70;;;;;;4907807;28;20186;-78
2021/01/05 08:39:22;;;;;;;6.10;4.60;;;4.30;89.80;;;;;;4900909;28;20937;-76
2021/01/05 08:41:45;;;;;;;5.80;4.30;;;4.30;86.10;;;;;;4907597;28;20261;-77
2021/01/05 08:44:08;;;;;;;6.03;4.80;;;4.30;86.50;;;;;;4907774;28;20665;-77
2021/01/05 08:46:31;;;;;;;5.93;4.87;;;4.20;85.30;;;;;;4907186;28;20274;-78
2021/01/05 08:48:53;;;;;;;6.10;5.10;;;4.30;84.00;;;;;;4906182;28;20180;-78
2021/01/05 08:51:16;;;;;;;5.73;4.60;;;4.30;83.60;;;;;;4905108;28;20242;-77
2021/01/05 08:53:38;;;;;;;7.40;5.40;;;4.30;78.90;;;;;;4907939;28;21039;-71
2021/01/05 08:56:00;;;;;;;6.97;6.27;;;4.30;77.70;;;;;;4908592;28;20246;-77
2021/01/05 08:58:22;;;;;;;8.00;5.83;;;4.30;77.50;;;;;;4908689;28;20176;-72
2021/01/05 09:00:44;;;;;;;9.80;8.17;;;4.30;78.80;;;;;;4901583;28;20739;-73
2021/01/05 09:03:07;;;;;;;8.57;7.67;;;4.30;78.30;;;;;;4904505;28;20635;-71
2021/01/05 09:05:29;;;;;;;5.80;5.20;;;4.40;77.50;;;;;;4910708;28;20200;-73
2021/01/05 09:07:52;;;;;;;6.60;5.47;;;4.30;78.80;;;;;;4913396;28;20230;-72
2021/01/05 09:10:18;;;;;;;6.17;4.97;;;4.40;75.50;;;;;;4915054;28;20172;-71
2021/01/05 09:12:40;;;;;;;8.40;6.77;;;4.40;74.20;;;;;;4897486;28;20234;-71
2021/01/05 09:15:03;;;;;;;10.40;8.37;;;4.40;71.10;;;;;;4915703;28;20185;-71
2021/01/05 09:17:25;;;;;;;7.67;6.10;;;4.40;71.40;;;;;;4916407;28;20183;-76
2021/01/05 09:19:48;;;;;;;9.27;7.83;;;4.50;70.00;;;;;;4916292;28;20707;-72
2021/01/05 09:22:10;;;;;;;10.27;8.57;;;4.50;63.40;;;;;;4916374;28;20681;-71
2021/01/05 09:24:32;;;;;;;7.93;6.20;;;4.50;64.00;;;;;;4915544;28;20233;-71
2021/01/05 09:26:56;;;;;;;9.50;8.37;;;4.50;64.30;;;;;;4915777;28;20184;-73
2021/01/05 09:29:18;;;;;;;9.80;8.20;;;4.50;63.70;;;;;;4916188;28;20249;-72
2021/01/05 09:31:41;;;;;;;9.73;8.47;;;4.50;64.10;;;;;;4915966;28;20531;-73
2021/01/05 09:34:03;;;;;;;9.33;8.03;;;4.60;59.80;;;;;;4916357;28;20184;-71
2021/01/05 09:36:31;;;;;;;9.20;8.30;;;4.60;59.00;;;;;;4915461;28;20192;-73
2021/01/05 09:38:53;;;;;;;13.13;11.73;;;4.70;57.30;;;;;;4915672;28;20200;-72
2021/01/05 09:41:24;;;;;;;7.63;6.00;;;4.70;56.30;;;;;;4909599;28;20211;-71
2021/01/05 09:43:46;;;;;;;6.30;5.17;;;4.80;56.40;;;;;;4913224;28;20229;-71
2021/01/05 09:46:11;;;;;;;4.60;4.03;;;4.80;54.40;;;;;;4913578;28;20705;-71
2021/01/05 09:48:33;;;;;;;4.67;3.70;;;4.90;50.40;;;;;;4903612;28;20184;-71
2021/01/05 09:50:55;;;;;;;6.43;4.57;;;4.90;48.80;;;;;;4914336;28;20221;-71
2021/01/05 09:53:18;;;;;;;4.53;3.97;;;4.90;47.20;;;;;;4913647;28;20236;-72
2021/01/05 09:55:40;;;;;;;5.20;4.37;;;4.90;47.00;;;;;;4914648;28;20180;-71
2021/01/05 09:58:02;;;;;;;4.83;4.00;;;4.90;45.80;;;;;;4913855;28;20217;-70
2021/01/05 10:00:26;;;;;;;4.97;3.93;;;4.90;46.10;;;;;;4912248;28;20200;-72
2021/01/05 10:02:48;;;;;;;4.93;3.87;;;4.90;39.30;;;;;;4913428;28;20191;-71
2021/01/05 10:05:11;;;;;;;5.00;4.50;;;4.90;27.80;;;;;;4909793;28;20191;-72
2021/01/05 10:07:34;;;;;;;5.67;4.63;;;5.00;29.00;;;;;;4912335;28;20281;-71
2021/01/05 10:09:57;;;;;;;5.20;4.47;;;5.00;29.60;;;;;;4913904;28;20196;-71
2021/01/05 10:12:19;;;;;;;6.03;4.97;;;4.90;29.90;;;;;;4914938;28;20594;-71
2021/01/05 10:14:41;;;;;;;5.87;4.83;;;5.00;31.70;;;;;;4913144;28;20195;-70
2021/01/05 10:17:03;;;;;;;6.07;4.37;;;5.00;30.90;;;;;;4915079;28;20241;-70
2021/01/05 10:19:27;;;;;;;5.40;4.90;;;5.00;34.30;;;;;;4913353;28;20556;-75
2021/01/05 10:21:51;;;;;;;4.47;4.03;;;5.10;30.00;;;;;;4915029;28;20249;-72
2021/01/05 10:24:14;;;;;;;4.73;4.23;;;5.20;28.70;;;;;;4896664;28;20201;-73
2021/01/05 10:26:37;;;;;;;6.67;5.33;;;5.20;28.20;;;;;;4912320;28;20661;-72
2021/01/05 10:28:59;;;;;;;9.67;8.50;;;5.30;26.70;;;;;;4914021;28;20244;-71
2021/01/05 10:31:21;;;;;;;7.50;6.70;;;5.30;22.00;;;;;;4913806;28;20188;-72
2021/01/05 10:33:43;;;;;;;6.40;5.20;;;5.30;20.30;;;;;;4914878;28;20213;-71
2021/01/05 10:36:06;;;;;;;5.03;4.20;;;5.30;18.20;;;;;;4912907;28;20206;-71
2021/01/05 10:38:28;;;;;;;5.97;5.37;;;5.30;17.60;;;;;;4912575;28;20224;-72
2021/01/05 10:40:52;;;;;;;6.20;5.47;;;5.40;16.00;;;;;;4911625;28;20261;-71
2021/01/05 10:43:15;;;;;;;9.60;8.60;;;5.40;6.10;;;;;;4913859;28;20188;-71
2021/01/05 10:45:40;;;;;;;7.47;6.13;;;5.40;4.70;;;;;;4913727;28;20245;-74
2021/01/05 10:48:02;;;;;;;6.20;5.57;;;5.40;10.90;;;;;;4914708;28;20176;-72
2021/01/05 10:50:25;;;;;;;6.57;5.87;;;5.40;11.40;;;;;;4895534;28;20189;-72
2021/01/05 10:52:49;;;;;;;10.93;8.57;;;5.40;12.70;;;;;;4913094;28;20834;-71
2021/01/05 10:55:12;;;;;;;11.03;9.33;;;5.50;9.90;;;;;;4913915;28;20176;-71
2021/01/05 10:57:35;;;;;;;6.27;5.50;;;5.60;12.50;;;;;;4913992;28;20210;-71
2021/01/05 10:59:57;;;;;;;11.23;8.47;;;5.70;13.00;;;;;;4912185;28;20738;-71
2021/01/05 11:02:20;;;;;;;7.27;6.57;;;5.80;9.00;;;;;;4911487;28;20211;-71
2021/01/05 11:04:44;;;;;;;10.13;8.17;;;5.90;1.00;;;;;;4913479;28;20751;-71
2021/01/05 11:07:08;;;;;;;9.10;7.07;;;5.70;1.00;;;;;;4914098;28;20249;-71
2021/01/05 11:09:30;;;;;;;4.27;3.87;;;5.70;1.00;;;;;;4914127;28;20180;-71
2021/01/05 11:11:57;;;;;;;4.80;4.03;;;5.70;1.00;;;;;;4892806;28;20215;-71
2021/01/05 11:14:19;;;;;;;7.13;6.30;;;5.60;1.00;;;;;;4894006;28;20196;-71
2021/01/05 11:16:47;;;;;;;6.07;5.37;;;5.50;1.00;;;;;;4894087;28;20246;-71
2021/01/05 11:19:10;;;;;;;12.33;9.50;;;5.40;1.00;;;;;;4894027;28;20310;-72
2021/01/05 11:21:32;;;;;;;13.93;9.57;;;5.40;1.00;;;;;;4893938;28;20216;-71
2021/01/05 11:23:54;;;;;;;25.10;17.80;;;5.50;1.00;;;;;;4893632;28;20193;-71
2021/01/05 11:26:16;;;;;;;11.80;10.20;;;5.30;1.00;;;;;;4894086;28;20653;-72
2021/01/05 11:28:38;;;;;;;7.93;6.60;;;5.20;1.00;;;;;;4894816;28;20604;-71
2021/01/05 11:31:00;;;;;;;6.50;5.50;;;5.20;1.00;;;;;;4892879;28;20211;-71
2021/01/05 11:33:23;;;;;;;10.97;8.77;;;5.10;1.00;;;;;;4909486;28;20237;-72
2021/01/05 11:35:46;;;;;;;11.83;10.27;;;5.20;1.00;;;;;;4892992;28;20181;-72
2021/01/05 11:38:08;;;;;;;13.70;11.37;;;5.10;1.40;;;;;;4897256;28;20333;-72
2021/01/05 11:40:30;;;;;;;9.13;7.80;;;5.00;4.80;;;;;;4901605;28;20191;-72
2021/01/05 11:42:54;;;;;;;7.87;6.43;;;4.90;10.90;;;;;;4916768;28;20269;-72
2021/01/05 11:45:17;;;;;;;7.73;6.20;;;5.00;11.40;;;;;;4914337;28;20268;-71
2021/01/05 11:47:40;;;;;;;5.87;4.93;;;5.00;12.70;;;;;;4917737;28;20319;-71
2021/01/05 11:50:05;;;;;;;5.50;4.93;;;5.00;13.50;;;;;;4916968;28;20200;-72
2021/01/05 11:52:27;;;;;;;5.73;4.70;;;4.90;12.30;;;;;;4916793;28;20184;-73
2021/01/05 11:54:50;;;;;;;6.17;5.30;;;4.90;12.70;;;;;;4915973;28;20547;-71
2021/01/05 11:57:12;;;;;;;5.20;4.70;;;4.80;12.80;;;;;;4917044;28;20180;-71
2021/01/05 11:59:34;;;;;;;6.13;4.93;;;4.80;13.10;;;;;;4917133;28;20257;-72
2021/01/05 12:01:56;;;;;;;6.00;4.97;;;4.80;13.80;;;;;;4913867;28;20227;-72
2021/01/05 12:04:19;;;;;;;6.70;5.97;;;4.90;14.10;;;;;;4917298;28;20184;-71
2021/01/05 12:06:46;;;;;;;6.67;5.17;;;4.80;13.80;;;;;;4914569;28;20192;-71
2021/01/05 12:09:09;;;;;;;7.37;5.97;;;4.70;14.20;;;;;;4915991;28;20250;-71
2021/01/05 12:11:33;;;;;;;7.10;6.00;;;4.70;15.70;;;;;;4916938;28;20188;-72
2021/01/05 12:13:55;;;;;;;7.47;6.07;;;4.70;16.50;;;;;;4916869;28;20176;-71
2021/01/05 12:16:29;;;;;;;7.63;6.17;;;4.70;17.50;;;;;;4913472;28;20237;-71
2021/01/05 12:18:52;;;;;;;7.03;5.80;;;4.70;18.60;;;;;;4916665;28;20264;-71
2021/01/05 12:21:22;;;;;;;6.30;5.63;;;4.60;18.50;;;;;;4917189;28;20203;-71
2021/01/05 12:23:45;;;;;;;8.80;7.30;;;4.60;15.30;;;;;;4916718;28;20545;-72
2021/01/05 12:26:07;;;;;;;9.17;6.67;;;4.50;15.50;;;;;;4916378;28;20225;-71
2021/01/05 12:28:29;;;;;;;8.83;7.03;;;4.50;19.20;;;;;;4916553;28;20187;-71
2021/01/05 12:30:51;;;;;;;9.87;7.57;;;4.40;21.60;;;;;;4915796;28;20192;-71
2021/01/05 12:33:14;;;;;;;10.17;7.67;;;4.40;22.90;;;;;;4917149;28;20778;-71
2021/01/05 12:35:41;;;;;;;9.23;7.90;;;4.30;24.50;;;;;;4914382;28;20208;-72
2021/01/05 12:38:03;;;;;;;10.90;8.03;;;4.40;27.50;;;;;;4896373;28;20733;-71
2021/01/05 12:40:26;;;;;;;8.17;7.03;;;4.30;28.60;;;;;;4895084;28;20197;-73
2021/01/05 12:42:48;;;;;;;8.73;6.97;;;4.30;26.00;;;;;;4909282;28;20261;-71
2021/01/05 12:45:11;;;;;;;8.97;7.23;;;4.30;26.80;;;;;;4915570;28;20184;-71
2021/01/05 12:47:33;;;;;;;9.93;7.67;;;4.30;27.10;;;;;;4915741;28;20786;-71
2021/01/05 12:49:56;;;;;;;9.17;7.37;;;4.20;29.10;;;;;;4916283;28;20604;-72
2021/01/05 12:52:19;;;;;;;8.93;7.60;;;4.20;31.00;;;;;;4914608;28;20184;-72